Rosewood, Ohio
Current Conditions -  °F | °C
As of 7:10 AM on Saturday 20 Dec 2014 (Local Time) from KEDJ Reporting Station
Overcast Overcast  
Wind Chill: 27°   Ceiling: 1500
Heat Index: 27°   Visibility: 10mi
Dew Point: 23°   Wind: 0mph
Humidity: 86%   Direction: NA
Pressure: 30.27"   Gusts: NA
Location:  40.22°N, 83.96°W
Report Text: KEDJ 201210Z AUTO 00000KT 10SM OVC015 M03/M05 A3027 RMK AO1
Loading
Personal Weather Stations






























Interactive Weather Map New forecast layout! Learn more

10-Day Weather Forecast

Advertisements
Track Severe Weather on mobile